Adel, Georgia
Current Conditions -  °F | °C
As of 3:58 AM on Wednesday 22 Oct 2014 (Local Time) from KVAD Reporting Station
Clear Clear  
Wind Chill: 55°   Ceiling: Unl
Heat Index: 55°   Visibility: 10mi
Dew Point: 52°   Wind: 6mph
Humidity: 88%   Direction: 360°N
Pressure: 29.97"   Gusts: NA
Location:  31.14°N, 83.42°W
Report Text: KVAD 220758Z AUTO 36005KT 10SM CLR 13/11 A2997 RMK AO2 SLP150 T01280109 $
Loading
Personal Weather Stations






























Interactive Weather Map
Tropical Storm Tracking
New forecast layout! Learn more

10-Day Weather Forecast

Advertisements
Track Severe Weather on mobile